createdAt,value
2023-08-20T00:01:32.284Z,18.15
2023-08-20T00:04:06.225Z,18.30
2023-08-20T00:06:36.645Z,18.15
2023-08-20T00:09:07.791Z,17.65
2023-08-20T00:11:37.327Z,18.08
2023-08-20T00:14:07.247Z,21.75
2023-08-20T00:16:37.709Z,20.67
2023-08-20T00:19:10.885Z,20.38
2023-08-20T00:21:45.649Z,19.75
2023-08-20T00:24:16.692Z,19.65
2023-08-20T00:26:46.905Z,19.02
2023-08-20T00:29:16.482Z,19.33
2023-08-20T00:31:46.099Z,18.40
2023-08-20T00:34:18.557Z,19.73
2023-08-20T00:39:17.467Z,19.92
2023-08-20T00:41:47.027Z,19.52
2023-08-20T00:44:16.597Z,17.83
2023-08-20T00:46:46.213Z,18.83
2023-08-20T00:49:18.577Z,16.45
2023-08-20T00:51:49.425Z,16.92
2023-08-20T00:54:19.390Z,16.23
2023-08-20T00:56:49.130Z,15.57
2023-08-20T00:59:19.110Z,15.75
2023-08-20T01:01:48.775Z,14.23
2023-08-20T01:04:21.245Z,13.63
2023-08-20T01:09:34.623Z,13.82
2023-08-20T01:12:07.200Z,11.63
2023-08-20T01:14:36.916Z,13.23
2023-08-20T01:17:07.002Z,11.43
2023-08-20T01:19:39.572Z,13.02
2023-08-20T01:22:21.681Z,11.15
2023-08-20T01:24:59.932Z,13.25
2023-08-20T01:27:47.868Z,10.90
2023-08-20T01:30:21.844Z,11.93
2023-08-20T01:32:55.820Z,10.88
2023-08-20T01:35:29.108Z,11.27
2023-08-20T01:38:05.931Z,10.57
2023-08-20T01:40:35.772Z,9.52
2023-08-20T01:43:05.330Z,13.45
2023-08-20T01:45:37.656Z,12.38
2023-08-20T01:48:07.812Z,11.63
2023-08-20T01:50:39.268Z,11.85
2023-08-20T01:53:08.858Z,12.90
2023-08-20T01:55:39.370Z,10.52
2023-08-20T01:58:08.935Z,13.32
2023-08-20T02:00:41.155Z,11.60
2023-08-20T02:03:11.257Z,12.85
2023-08-20T02:05:41.299Z,11.90
2023-08-20T02:08:12.669Z,12.10
2023-08-20T02:10:43.031Z,12.57
2023-08-20T02:13:12.589Z,13.50
2023-08-20T02:15:44.735Z,12.95
2023-08-20T02:18:14.319Z,11.93
2023-08-20T02:20:47.170Z,11.48
2023-08-20T02:23:17.008Z,14.90
2023-08-20T02:25:47.764Z,13.98
2023-08-20T02:28:17.380Z,12.95
2023-08-20T02:30:50.447Z,13.48
2023-08-20T02:33:20.076Z,12.55
2023-08-20T02:35:49.615Z,12.80
2023-08-20T02:38:19.183Z,13.85
2023-08-20T02:40:48.824Z,13.65
2023-08-20T02:43:18.375Z,13.18
2023-08-20T02:45:50.567Z,14.05
2023-08-20T02:48:21.546Z,13.73
2023-08-20T02:50:51.140Z,13.85
2023-08-20T02:53:20.725Z,13.10
2023-08-20T02:55:50.741Z,13.60
2023-08-20T02:58:20.496Z,13.88
2023-08-20T03:00:53.881Z,12.23
2023-08-20T03:03:23.864Z,12.55
2023-08-20T03:05:53.470Z,13.07
2023-08-20T03:08:23.211Z,11.98
2023-08-20T03:10:52.978Z,12.30
2023-08-20T03:13:26.294Z,12.55
2023-08-20T03:15:58.428Z,11.55
2023-08-20T03:18:28.195Z,11.45
2023-08-20T03:20:58.791Z,10.95
2023-08-20T03:23:28.499Z,11.75
2023-08-20T03:26:01.474Z,11.50
2023-08-20T03:31:06.044Z,12.82
2023-08-20T03:33:40.087Z,10.50
2023-08-20T03:36:09.817Z,11.15
2023-08-20T03:38:39.370Z,12.25
2023-08-20T03:41:08.990Z,14.73
2023-08-20T03:43:39.342Z,10.88
2023-08-20T03:46:12.115Z,11.35
2023-08-20T03:48:41.808Z,13.32
2023-08-20T03:51:11.420Z,11.20
2023-08-20T03:53:40.968Z,10.77
2023-08-20T03:56:10.680Z,11.82
2023-08-20T03:58:40.231Z,10.35
2023-08-20T04:01:12.792Z,12.05
2023-08-20T04:03:42.401Z,11.68
2023-08-20T04:06:12.013Z,10.25
2023-08-20T04:08:41.587Z,10.23
2023-08-20T04:11:11.132Z,11.90
2023-08-20T04:13:44.874Z,10.60
2023-08-20T04:16:17.571Z,11.38
2023-08-20T04:18:47.153Z,10.13
2023-08-20T04:21:16.727Z,12.27
2023-08-20T04:23:46.274Z,12.57
2023-08-20T04:26:15.916Z,13.18
2023-08-20T04:28:46.064Z,10.82
2023-08-20T04:31:18.310Z,13.60
2023-08-20T04:33:54.333Z,11.10
2023-08-20T04:36:30.616Z,13.88
2023-08-20T04:39:00.187Z,12.50
2023-08-20T04:41:32.978Z,11.80
2023-08-20T04:44:02.537Z,11.00
2023-08-20T04:46:34.874Z,10.52
2023-08-20T04:49:04.560Z,9.65
2023-08-20T04:51:34.138Z,13.98
2023-08-20T04:54:03.742Z,12.07
2023-08-20T04:56:33.351Z,11.00
2023-08-20T04:59:03.033Z,9.45
2023-08-20T05:02:01.133Z,10.20
2023-08-20T05:04:42.967Z,12.73
2023-08-20T05:07:12.536Z,13.55
2023-08-20T05:09:42.136Z,10.98
2023-08-20T05:12:11.992Z,12.82
2023-08-20T05:14:41.616Z,11.85
2023-08-20T05:17:13.820Z,12.90
2023-08-20T05:19:43.376Z,11.77
2023-08-20T05:22:13.135Z,11.98
2023-08-20T05:24:42.988Z,9.98
2023-08-20T05:27:15.610Z,11.60
2023-08-20T05:29:47.654Z,10.98
2023-08-20T05:32:20.905Z,11.30
2023-08-20T05:34:50.577Z,11.35
2023-08-20T05:37:20.256Z,12.18
2023-08-20T05:39:50.105Z,9.25
2023-08-20T05:42:20.615Z,12.88
2023-08-20T05:44:57.038Z,12.80
2023-08-20T05:47:32.955Z,10.30
2023-08-20T05:50:03.452Z,9.65
2023-08-20T05:52:33.205Z,11.93
2023-08-20T05:55:02.924Z,12.88
2023-08-20T05:57:33.874Z,10.80
2023-08-20T06:00:03.496Z,10.00
2023-08-20T06:02:45.440Z,10.27
2023-08-20T06:05:15.221Z,11.90
2023-08-20T06:07:44.798Z,11.38
2023-08-20T06:10:14.629Z,10.70
2023-08-20T06:12:44.222Z,11.32
2023-08-20T06:15:25.403Z,10.65
2023-08-20T06:17:57.584Z,11.85
2023-08-20T06:20:27.188Z,11.88
2023-08-20T06:22:56.742Z,10.35
2023-08-20T06:25:26.398Z,9.98
2023-08-20T06:27:55.957Z,9.68
2023-08-20T06:30:25.511Z,9.85
2023-08-20T06:32:57.942Z,10.35
2023-08-20T06:35:27.596Z,11.27
2023-08-20T06:37:57.156Z,9.85
2023-08-20T06:40:26.738Z,11.60
2023-08-20T06:42:56.296Z,11.27
2023-08-20T06:45:25.891Z,7.90
2023-08-20T06:47:58.862Z,9.43
2023-08-20T06:50:28.484Z,10.27
2023-08-20T06:52:58.052Z,12.27
2023-08-20T06:55:27.631Z,10.93
2023-08-20T06:57:57.177Z,10.13
2023-08-20T07:00:26.878Z,10.23
2023-08-20T07:02:59.083Z,9.48
2023-08-20T07:05:28.864Z,8.48
2023-08-20T07:07:58.460Z,11.98
2023-08-20T07:10:28.100Z,11.25
2023-08-20T07:12:57.651Z,11.85
2023-08-20T07:15:27.239Z,10.00
2023-08-20T07:17:59.422Z,10.07
2023-08-20T07:20:29.049Z,8.95
2023-08-20T07:22:58.623Z,9.57
2023-08-20T07:25:28.504Z,10.07
2023-08-20T07:28:00.611Z,9.68
2023-08-20T07:30:32.464Z,11.68
2023-08-20T07:33:06.478Z,8.40
2023-08-20T07:35:36.879Z,10.63
2023-08-20T07:38:07.031Z,11.73
2023-08-20T07:40:36.599Z,11.00
2023-08-20T07:43:06.279Z,11.10
2023-08-20T07:45:35.871Z,9.45
2023-08-20T07:48:08.986Z,8.80
2023-08-20T07:50:38.683Z,10.20
2023-08-20T07:53:08.302Z,9.90
2023-08-20T07:55:38.181Z,9.40
2023-08-20T07:58:08.020Z,9.80
2023-08-20T08:00:37.596Z,9.30
2023-08-20T08:03:11.023Z,10.32
2023-08-20T08:05:41.026Z,12.63
2023-08-20T08:08:10.885Z,10.57
2023-08-20T08:10:40.476Z,9.82
2023-08-20T08:13:11.483Z,14.25
2023-08-20T08:15:41.470Z,8.85
2023-08-20T08:18:13.807Z,8.95
2023-08-20T08:20:43.558Z,8.70
2023-08-20T08:23:13.230Z,10.57
2023-08-20T08:25:43.817Z,6.50
2023-08-20T08:28:13.461Z,9.73
2023-08-20T08:30:43.782Z,8.02
2023-08-20T08:33:15.971Z,8.02
2023-08-20T08:35:45.581Z,7.53
2023-08-20T08:38:15.174Z,10.80
2023-08-20T08:40:46.534Z,7.75
2023-08-20T08:43:18.512Z,10.85
2023-08-20T08:45:51.689Z,9.32
2023-08-20T08:48:25.294Z,10.32
2023-08-20T08:50:56.090Z,8.90
2023-08-20T08:53:28.726Z,8.38
2023-08-20T08:55:58.686Z,9.38
2023-08-20T08:58:28.244Z,8.75
2023-08-20T09:00:58.066Z,7.68
2023-08-20T09:03:30.309Z,6.47
2023-08-20T09:06:02.496Z,6.85
2023-08-20T09:08:33.427Z,8.00
2023-08-20T09:11:05.765Z,8.68
2023-08-20T09:13:40.179Z,8.57
2023-08-20T09:16:10.951Z,9.57
2023-08-20T09:18:48.925Z,8.35
2023-08-20T09:21:18.459Z,5.25
2023-08-20T09:23:49.688Z,8.85
2023-08-20T09:26:19.248Z,8.20
2023-08-20T09:28:50.191Z,8.40
2023-08-20T09:31:19.856Z,8.75
2023-08-20T09:33:56.370Z,8.30
2023-08-20T09:36:34.634Z,9.10
2023-08-20T09:39:05.141Z,6.70
2023-08-20T09:41:34.845Z,7.68
2023-08-20T09:44:07.809Z,8.65
2023-08-20T09:46:39.274Z,7.72
2023-08-20T09:49:15.227Z,6.63
2023-08-20T09:51:46.364Z,8.88
2023-08-20T09:54:23.443Z,8.90
2023-08-20T09:56:58.237Z,6.60
2023-08-20T09:59:28.391Z,7.93
2023-08-20T10:01:59.632Z,7.97
2023-08-20T10:04:32.918Z,9.27
2023-08-20T10:07:03.049Z,7.20
2023-08-20T10:09:33.171Z,7.78
2023-08-20T10:12:04.471Z,9.85
2023-08-20T10:14:34.077Z,8.90
2023-08-20T10:17:09.534Z,9.50
2023-08-20T10:19:42.610Z,5.88
2023-08-20T10:22:12.685Z,8.00
2023-08-20T10:24:51.065Z,7.95
2023-08-20T10:27:31.477Z,8.65
2023-08-20T10:30:02.633Z,9.38
2023-08-20T10:32:54.532Z,9.68
2023-08-20T10:35:31.538Z,7.50
2023-08-20T10:38:03.338Z,9.27
2023-08-20T10:40:51.293Z,7.78
2023-08-20T10:43:36.598Z,8.60
2023-08-20T10:46:10.865Z,5.28
2023-08-20T10:48:42.473Z,8.52
2023-08-20T10:51:18.693Z,9.75
2023-08-20T10:54:08.056Z,7.30
2023-08-20T10:56:47.889Z,7.97
2023-08-20T10:59:19.259Z,6.30
2023-08-20T11:01:49.759Z,6.70
2023-08-20T11:04:20.620Z,5.35
2023-08-20T11:06:56.575Z,7.57
2023-08-20T11:09:27.182Z,8.27
2023-08-20T11:11:57.108Z,4.65
2023-08-20T11:14:26.798Z,9.55
2023-08-20T11:16:56.624Z,6.18
2023-08-20T11:19:27.446Z,5.60
2023-08-20T11:21:59.658Z,10.18
2023-08-20T11:24:33.553Z,8.20
2023-08-20T11:27:03.245Z,5.88
2023-08-20T11:29:32.837Z,7.72
2023-08-20T11:32:06.736Z,11.55
2023-08-20T11:34:36.689Z,5.88
2023-08-20T11:37:08.921Z,8.48
2023-08-20T11:39:40.586Z,6.63
2023-08-20T11:42:10.337Z,7.80
2023-08-20T11:44:47.355Z,5.47
2023-08-20T11:47:18.159Z,5.68
2023-08-20T11:49:47.967Z,6.30
2023-08-20T11:52:22.965Z,8.13
2023-08-20T11:54:52.595Z,8.25
2023-08-20T11:57:22.404Z,8.63
2023-08-20T11:59:51.968Z,6.57
2023-08-20T12:02:39.264Z,7.70
2023-08-20T12:05:11.053Z,6.03
2023-08-20T12:07:43.328Z,9.07
2023-08-20T12:10:25.933Z,8.18
2023-08-20T12:15:26.002Z,9.35
2023-08-20T12:18:06.201Z,8.77
2023-08-20T12:20:37.991Z,10.23
2023-08-20T12:23:10.746Z,10.98
2023-08-20T12:25:40.545Z,7.55
2023-08-20T12:28:10.369Z,7.97
2023-08-20T12:30:40.362Z,10.70
2023-08-20T12:33:10.396Z,8.23
2023-08-20T12:35:40.036Z,7.55
2023-08-20T12:38:12.751Z,8.52
2023-08-20T12:40:42.460Z,9.10
2023-08-20T12:43:12.078Z,8.07
2023-08-20T12:45:41.786Z,11.18
2023-08-20T12:48:11.329Z,10.00
2023-08-20T12:50:40.960Z,10.43
2023-08-20T12:53:14.179Z,8.85
2023-08-20T12:55:43.779Z,8.90
2023-08-20T12:58:13.324Z,7.47
2023-08-20T13:00:43.269Z,8.40
2023-08-20T13:03:14.210Z,6.20
2023-08-20T13:05:44.548Z,7.85
2023-08-20T13:08:17.499Z,6.13
2023-08-20T13:10:54.353Z,8.30
2023-08-20T13:13:25.354Z,8.10
2023-08-20T13:15:56.036Z,8.55
2023-08-20T13:18:27.647Z,8.93
2023-08-20T13:20:57.232Z,8.73
2023-08-20T13:23:29.400Z,7.55
2023-08-20T13:25:59.055Z,8.60
2023-08-20T13:28:28.700Z,9.10
2023-08-20T13:30:58.402Z,7.25
2023-08-20T13:33:28.031Z,6.95
2023-08-20T13:35:58.677Z,7.60
2023-08-20T13:38:30.867Z,7.70
2023-08-20T13:41:00.482Z,8.73
2023-08-20T13:43:30.138Z,8.10
2023-08-20T13:45:59.723Z,10.43
2023-08-20T13:48:29.343Z,7.38
2023-08-20T13:50:59.025Z,8.35
2023-08-20T13:53:31.260Z,6.93
2023-08-20T13:56:00.962Z,6.97
2023-08-20T13:58:30.558Z,9.40
2023-08-20T14:01:00.353Z,9.65
2023-08-20T14:03:30.691Z,9.95
2023-08-20T14:06:00.270Z,9.82
2023-08-20T14:08:32.471Z,7.50
2023-08-20T14:11:03.506Z,7.15
2023-08-20T14:13:33.410Z,7.63
2023-08-20T14:16:03.557Z,10.73
2023-08-20T14:18:33.218Z,5.80
2023-08-20T14:21:03.925Z,8.00
2023-08-20T14:23:36.278Z,9.07
2023-08-20T14:28:35.248Z,9.60
2023-08-20T14:31:17.876Z,8.55
2023-08-20T14:33:47.511Z,10.32
2023-08-20T14:36:17.190Z,7.72
2023-08-20T14:38:49.346Z,10.70
2023-08-20T14:41:19.010Z,10.63
2023-08-20T14:43:48.592Z,8.93
2023-08-20T14:46:18.198Z,9.68
2023-08-20T14:48:47.782Z,8.57
2023-08-20T14:51:17.484Z,6.78
2023-08-20T14:53:49.668Z,9.27
2023-08-20T14:56:19.272Z,7.53
2023-08-20T14:58:48.949Z,10.50
2023-08-20T15:01:18.948Z,9.73
2023-08-20T15:03:48.627Z,9.07
2023-08-20T15:06:22.638Z,8.65
2023-08-20T15:08:54.853Z,9.50
2023-08-20T15:11:24.524Z,9.07
2023-08-20T15:13:54.145Z,9.57
2023-08-20T15:16:23.898Z,7.53
2023-08-20T15:18:53.544Z,8.23
2023-08-20T15:21:23.228Z,8.55
2023-08-20T15:23:55.724Z,8.32
2023-08-20T15:28:54.660Z,7.47
2023-08-20T15:31:24.376Z,9.07
2023-08-20T15:33:54.558Z,8.68
2023-08-20T15:36:24.581Z,9.10
2023-08-20T15:38:56.812Z,8.07
2023-08-20T15:43:56.024Z,9.95
2023-08-20T15:46:27.093Z,10.20
2023-08-20T15:48:57.142Z,8.93
2023-08-20T15:51:26.843Z,9.27
2023-08-20T15:53:59.416Z,9.23
2023-08-20T15:56:29.425Z,11.23
2023-08-20T15:58:59.229Z,9.38
2023-08-20T16:01:29.512Z,7.57
2023-08-20T16:03:59.348Z,7.85
2023-08-20T16:06:29.154Z,9.68
2023-08-20T16:09:01.429Z,8.50
2023-08-20T16:14:00.757Z,10.85
2023-08-20T16:19:02.632Z,10.48
2023-08-20T16:21:32.263Z,7.85
2023-08-20T16:24:05.491Z,9.55
2023-08-20T16:26:35.686Z,7.97
2023-08-20T16:29:05.456Z,7.97
2023-08-20T16:31:35.568Z,11.65
2023-08-20T16:34:05.216Z,8.00
2023-08-20T16:36:35.451Z,12.52
2023-08-20T16:39:07.743Z,7.65
2023-08-20T16:44:06.966Z,7.22
2023-08-20T16:46:38.637Z,9.48
2023-08-20T16:49:08.321Z,7.95
2023-08-20T16:51:37.984Z,7.75
2023-08-20T16:54:10.465Z,9.90
2023-08-20T16:56:40.187Z,10.07
2023-08-20T16:59:09.815Z,9.23
2023-08-20T17:01:39.464Z,9.10
2023-08-20T17:04:09.225Z,11.25
2023-08-20T17:06:38.867Z,11.00
2023-08-20T17:09:11.133Z,10.93
2023-08-20T17:14:10.674Z,11.38
2023-08-20T17:16:40.880Z,10.43
2023-08-20T17:19:10.568Z,9.52
2023-08-20T17:21:41.928Z,10.18
2023-08-20T17:24:14.135Z,9.83
2023-08-20T17:26:43.919Z,10.80
2023-08-20T17:29:13.622Z,10.13
2023-08-20T17:31:43.937Z,8.00
2023-08-20T17:34:13.552Z,9.10
2023-08-20T17:36:43.170Z,8.90
2023-08-20T17:39:16.716Z,9.48
2023-08-20T17:41:46.579Z,10.27
2023-08-20T17:44:16.215Z,9.70
2023-08-20T17:46:46.938Z,10.10
2023-08-20T17:49:18.188Z,9.65
2023-08-20T17:51:48.093Z,8.65
2023-08-20T17:54:20.517Z,8.68
2023-08-20T17:56:50.117Z,11.07
2023-08-20T17:59:19.765Z,9.45
2023-08-20T18:01:49.418Z,10.23
2023-08-20T18:04:19.115Z,10.25
2023-08-20T18:06:48.701Z,9.30
2023-08-20T18:09:21.130Z,12.40
2023-08-20T18:11:50.715Z,8.65
2023-08-20T18:14:20.401Z,9.75
2023-08-20T18:16:50.199Z,12.02
2023-08-20T18:19:19.828Z,12.38
2023-08-20T18:21:49.868Z,10.43
2023-08-20T18:24:22.096Z,10.80
2023-08-20T18:26:51.680Z,12.57
2023-08-20T18:29:21.224Z,11.40
2023-08-20T18:31:52.158Z,10.38
2023-08-20T18:34:22.037Z,10.63
2023-08-20T18:36:52.021Z,11.88
2023-08-20T18:39:24.172Z,11.57
2023-08-20T18:41:54.225Z,9.63
2023-08-20T18:44:23.923Z,8.93
2023-08-20T18:46:53.602Z,12.18
2023-08-20T18:49:23.236Z,12.85
2023-08-20T18:51:53.083Z,14.18
2023-08-20T18:54:25.371Z,11.55
2023-08-20T18:59:24.340Z,15.25
2023-08-20T19:01:54.228Z,12.23
2023-08-20T19:04:23.801Z,11.07
2023-08-20T19:06:54.174Z,12.95
2023-08-20T19:09:26.313Z,11.55
2023-08-20T19:11:57.316Z,9.45
2023-08-20T19:14:27.110Z,9.68
2023-08-20T19:16:56.690Z,10.40
2023-08-20T19:19:26.285Z,7.15
2023-08-20T19:21:55.926Z,9.18
2023-08-20T19:24:28.153Z,7.95
2023-08-20T19:29:28.366Z,12.25
2023-08-20T19:31:58.018Z,9.88
2023-08-20T19:34:28.167Z,9.48
2023-08-20T19:36:57.849Z,10.88
2023-08-20T19:39:30.004Z,13.15
2023-08-20T19:41:59.573Z,10.25
2023-08-20T19:44:29.152Z,8.95
2023-08-20T19:46:58.706Z,10.93
2023-08-20T19:49:28.286Z,10.68
2023-08-20T19:51:57.813Z,10.57
2023-08-20T19:54:30.079Z,10.43
2023-08-20T19:59:29.079Z,12.65
2023-08-20T20:01:58.714Z,10.40
2023-08-20T20:04:29.542Z,11.57
2023-08-20T20:07:09.429Z,10.68
2023-08-20T20:09:49.244Z,10.18
2023-08-20T20:12:18.864Z,11.00
2023-08-20T20:14:48.574Z,12.23
2023-08-20T20:17:18.198Z,10.32
2023-08-20T20:19:48.363Z,10.50
2023-08-20T20:22:17.967Z,9.38
2023-08-20T20:24:50.837Z,11.05
2023-08-20T20:27:20.438Z,10.27
2023-08-20T20:29:50.031Z,14.52
2023-08-20T20:32:20.444Z,13.07
2023-08-20T20:34:50.001Z,12.13
2023-08-20T20:37:20.031Z,10.43
2023-08-20T20:39:52.163Z,13.63
2023-08-20T20:42:21.740Z,11.43
2023-08-20T20:44:51.798Z,12.45
2023-08-20T20:47:21.501Z,13.65
2023-08-20T20:49:51.174Z,13.63
2023-08-20T20:54:55.614Z,12.23
2023-08-20T20:57:25.419Z,13.15
2023-08-20T20:59:55.245Z,10.10
2023-08-20T21:02:24.889Z,10.90
2023-08-20T21:04:54.486Z,11.00
2023-08-20T21:07:24.042Z,13.63
2023-08-20T21:09:57.028Z,13.82
2023-08-20T21:12:26.779Z,13.10
2023-08-20T21:14:56.343Z,11.45
2023-08-20T21:17:26.034Z,11.68
2023-08-20T21:19:58.661Z,11.95
2023-08-20T21:22:28.877Z,12.07
2023-08-20T21:25:01.080Z,15.40
2023-08-20T21:27:30.686Z,11.77
2023-08-20T21:30:00.358Z,9.55
2023-08-20T21:32:31.770Z,10.57
2023-08-20T21:35:06.679Z,12.30
2023-08-20T21:37:36.326Z,10.70
2023-08-20T21:40:09.798Z,13.30
2023-08-20T21:42:39.650Z,10.88
2023-08-20T21:45:10.670Z,11.60
2023-08-20T21:47:48.121Z,12.18
2023-08-20T21:50:19.052Z,11.07
2023-08-20T21:52:49.037Z,12.63
2023-08-20T21:55:21.396Z,12.93
2023-08-20T21:57:51.020Z,10.85
2023-08-20T22:00:20.778Z,14.82
2023-08-20T22:02:51.637Z,10.38
2023-08-20T22:05:25.629Z,8.68
2023-08-20T22:07:55.330Z,11.90
2023-08-20T22:10:27.890Z,12.55
2023-08-20T22:12:57.632Z,12.23
2023-08-20T22:15:27.379Z,8.52
2023-08-20T22:17:56.990Z,10.95
2023-08-20T22:20:26.663Z,10.23
2023-08-20T22:22:56.726Z,10.80
2023-08-20T22:25:28.913Z,10.27
2023-08-20T22:27:58.498Z,11.43
2023-08-20T22:30:28.092Z,9.95
2023-08-20T22:32:58.136Z,9.88
2023-08-20T22:35:27.831Z,11.77
2023-08-20T22:38:09.334Z,12.80
2023-08-20T22:40:43.510Z,10.32
2023-08-20T22:43:13.287Z,9.10
2023-08-20T22:45:42.884Z,10.05
2023-08-20T22:48:12.496Z,10.05
2023-08-20T22:50:42.148Z,9.75
2023-08-20T22:53:11.757Z,8.35
2023-08-20T22:55:43.932Z,8.40
2023-08-20T22:58:13.523Z,5.82
2023-08-20T23:00:43.205Z,6.13
2023-08-20T23:03:12.854Z,8.38
2023-08-20T23:05:42.519Z,9.10
2023-08-20T23:08:12.087Z,6.10
2023-08-20T23:10:44.252Z,9.00
2023-08-20T23:13:13.882Z,8.38
2023-08-20T23:15:44.990Z,6.60
2023-08-20T23:18:14.774Z,8.93
2023-08-20T23:20:44.385Z,7.40
2023-08-20T23:23:14.071Z,8.27
2023-08-20T23:25:46.747Z,7.15
2023-08-20T23:28:16.353Z,8.02
2023-08-20T23:30:47.082Z,7.68
2023-08-20T23:33:17.206Z,8.73
2023-08-20T23:35:47.136Z,9.63
2023-08-20T23:38:17.109Z,8.70
2023-08-20T23:40:49.297Z,8.32
2023-08-20T23:43:18.924Z,7.45
2023-08-20T23:45:48.468Z,9.40
2023-08-20T23:48:18.058Z,6.70
2023-08-20T23:50:47.656Z,9.07
2023-08-20T23:53:32.146Z,8.75
2023-08-20T23:56:04.378Z,8.40
2023-08-20T23:58:34.034Z,10.00
